Time;durP1;ratioP1;P1;durP2;ratioP2;P2;SDS_P1;SDS_P2;PMS_P1;PMS_P2;Temp;Humidity;BMP_temperature;BMP_pressure;BME280_temperature;BME280_humidity;BME280_pressure;Samples;Min_cycle;Max_cycle;Signal;HPM_P1;HPM_P2
2022/09/24 00:01:27;;;;;;;7.65;3.70;;;15.00;99.90;;;;;;4997334;28;20475;-81
2022/09/24 00:04:00;;;;;;;5.10;3.47;;;15.00;99.90;;;;;;4997253;28;20100;-81
2022/09/24 00:06:29;;;;;;;17.50;3.80;;;15.00;99.90;;;;;;5014495;28;20060;-81
2022/09/24 00:08:56;;;;;;;5.45;3.42;;;15.00;99.90;;;;;;4998467;28;20046;-81
2022/09/24 00:11:25;;;;;;;7.03;3.90;;;15.00;99.90;;;;;;4991844;28;20132;-81
2022/09/24 00:13:54;;;;;;;5.07;3.67;;;15.00;99.90;;;;;;4998877;28;20054;-81
2022/09/24 00:16:24;;;;;;;7.68;3.63;;;15.00;99.90;;;;;;5002862;28;20061;-81
2022/09/24 00:18:52;;;;;;;8.50;3.42;;;15.00;99.90;;;;;;5006329;28;20050;-81
2022/09/24 00:21:28;;;;;;;5.18;3.50;;;15.00;99.90;;;;;;5011024;28;20489;-81
2022/09/24 00:24:05;;;;;;;5.10;2.65;;;15.10;99.90;;;;;;5015147;28;20579;-81
2022/09/24 00:26:50;;;;;;;3.45;2.53;;;15.10;99.90;;;;;;5015025;28;20500;-81
2022/09/24 00:29:22;;;;;;;4.82;3.30;;;15.20;99.90;;;;;;5009853;28;20046;-81
2022/09/24 00:31:51;;;;;;;5.03;2.80;;;15.20;99.90;;;;;;5010430;28;20046;-81
2022/09/24 00:34:19;;;;;;;3.10;2.72;;;15.20;99.90;;;;;;4982896;28;20082;-81
2022/09/24 00:36:46;;;;;;;7.90;2.92;;;15.20;99.90;;;;;;5013622;28;20042;-81
2022/09/24 00:39:13;;;;;;;5.10;2.97;;;15.30;99.90;;;;;;5010620;28;20046;-81
2022/09/24 00:41:46;;;;;;;5.00;2.90;;;15.30;99.90;;;;;;5005278;28;20508;-81
2022/09/24 00:44:44;;;;;;;5.18;3.70;;;15.40;99.90;;;;;;5001333;28;20060;-81
2022/09/24 00:47:26;;;;;;;4.57;2.70;;;15.30;99.90;;;;;;5026902;28;20446;-81
2022/09/24 00:50:01;;;;;;;4.07;3.17;;;15.40;99.90;;;;;;5004741;28;20060;-81
2022/09/24 00:52:28;;;;;;;11.20;3.28;;;15.40;99.90;;;;;;5010162;28;20046;-81
2022/09/24 00:54:55;;;;;;;4.70;3.13;;;15.40;99.90;;;;;;4997042;28;20118;-80
2022/09/24 00:57:23;;;;;;;8.73;3.33;;;15.40;99.90;;;;;;4999440;28;20542;-81
2022/09/24 00:59:50;;;;;;;3.65;2.63;;;15.40;99.90;;;;;;4998256;28;20415;-81
2022/09/24 01:02:16;;;;;;;3.90;2.65;;;15.40;99.90;;;;;;5023291;28;20056;-81
2022/09/24 01:04:43;;;;;;;3.83;2.35;;;15.40;99.90;;;;;;4994727;28;20054;-81
2022/09/24 01:07:10;;;;;;;3.85;2.47;;;15.40;99.90;;;;;;5023244;28;20053;-81
2022/09/24 01:09:37;;;;;;;7.15;2.80;;;15.50;99.90;;;;;;5014065;28;20060;-81
2022/09/24 01:12:37;;;;;;;3.78;2.63;;;15.50;99.90;;;;;;5006978;28;20046;-81
2022/09/24 01:15:18;;;;;;;3.38;3.00;;;15.40;99.90;;;;;;5001856;28;20509;-81
2022/09/24 01:17:59;;;;;;;5.10;2.75;;;15.50;99.90;;;;;;5006077;28;20538;-81
2022/09/24 01:21:05;;;;;;;6.05;2.88;;;15.50;99.90;;;;;;5011592;28;20058;-81
2022/09/24 01:24:12;;;;;;;6.20;2.90;;;15.50;99.90;;;;;;5006037;28;20046;-81
2022/09/24 01:26:55;;;;;;;3.47;2.45;;;15.50;99.90;;;;;;4983213;28;20113;-81
2022/09/24 01:29:50;;;;;;;5.10;2.42;;;15.40;99.90;;;;;;5011838;28;20049;-81
2022/09/24 01:32:42;;;;;;;5.30;1.92;;;15.40;99.90;;;;;;5004979;28;20045;-81
2022/09/24 01:35:27;;;;;;;4.90;2.08;;;15.40;99.90;;;;;;5002484;28;20125;-81
2022/09/24 01:38:01;;;;;;;4.28;2.15;;;15.40;99.90;;;;;;5012972;28;20056;-79
2022/09/24 01:40:29;;;;;;;3.28;2.10;;;15.40;99.90;;;;;;5010266;28;20064;-80
2022/09/24 01:42:58;;;;;;;6.05;2.85;;;15.40;99.90;;;;;;5020125;28;20501;-81
2022/09/24 01:45:30;;;;;;;4.03;2.15;;;15.30;99.90;;;;;;4983806;28;20081;-81
2022/09/24 01:48:01;;;;;;;8.88;2.42;;;15.30;99.90;;;;;;5014016;28;20054;-81
2022/09/24 01:50:32;;;;;;;2.83;2.05;;;15.30;99.90;;;;;;4982732;28;20113;-81
2022/09/24 01:53:05;;;;;;;2.95;2.00;;;15.30;99.90;;;;;;5004144;28;20128;-81
2022/09/24 01:55:37;;;;;;;2.83;2.50;;;15.30;99.90;;;;;;5003705;28;20046;-82
2022/09/24 01:58:09;;;;;;;3.67;2.25;;;15.30;99.90;;;;;;4982374;28;20047;-82
2022/09/24 02:00:39;;;;;;;4.90;2.28;;;15.30;99.90;;;;;;4993487;28;20419;-82
2022/09/24 02:03:21;;;;;;;4.00;2.47;;;15.30;99.90;;;;;;4992802;28;20068;-82
2022/09/24 02:06:13;;;;;;;2.47;1.90;;;15.30;99.90;;;;;;5004898;28;20085;-81
2022/09/24 02:08:44;;;;;;;2.70;1.85;;;15.30;99.90;;;;;;5014555;28;20054;-80
2022/09/24 02:11:13;;;;;;;3.70;2.28;;;15.30;99.90;;;;;;5011232;28;20045;-82
2022/09/24 02:13:55;;;;;;;3.53;1.75;;;15.30;99.90;;;;;;5009561;28;20088;-82
2022/09/24 02:16:29;;;;;;;4.90;2.05;;;15.20;99.90;;;;;;5004151;28;20388;-82
2022/09/24 02:19:00;;;;;;;3.60;1.83;;;15.20;99.90;;;;;;5014065;28;20077;-81
2022/09/24 02:21:30;;;;;;;3.03;2.20;;;15.20;99.90;;;;;;4996809;28;20068;-80
2022/09/24 02:24:02;;;;;;;3.42;1.98;;;15.20;99.90;;;;;;5024821;28;20054;-80
2022/09/24 02:26:29;;;;;;;2.65;1.90;;;15.20;99.90;;;;;;4987162;28;20054;-80
2022/09/24 02:28:58;;;;;;;5.30;1.95;;;15.20;99.90;;;;;;5000366;28;20046;-80
2022/09/24 02:31:29;;;;;;;3.65;1.85;;;15.20;99.90;;;;;;5010355;28;20052;-79
2022/09/24 02:34:19;;;;;;;3.85;2.20;;;15.20;99.90;;;;;;5010311;28;20105;-79
2022/09/24 02:36:58;;;;;;;4.75;2.22;;;15.20;99.90;;;;;;5005230;28;20053;-79
2022/09/24 02:39:24;;;;;;;3.70;2.42;;;15.20;99.90;;;;;;5000276;28;20060;-80
2022/09/24 02:41:53;;;;;;;4.25;2.35;;;15.20;99.90;;;;;;5006495;28;20060;-80
2022/09/24 02:44:21;;;;;;;3.22;2.15;;;15.20;99.90;;;;;;5009913;28;20050;-80
2022/09/24 02:46:49;;;;;;;3.40;2.17;;;15.20;99.90;;;;;;5005680;28;20116;-80
2022/09/24 02:49:16;;;;;;;3.22;2.60;;;15.20;99.90;;;;;;5000560;28;20053;-80
2022/09/24 02:51:44;;;;;;;4.25;2.50;;;15.20;99.90;;;;;;5004099;28;20057;-80
2022/09/24 02:54:11;;;;;;;4.07;3.28;;;15.20;99.90;;;;;;5010890;28;20050;-80
2022/09/24 02:56:38;;;;;;;4.00;3.08;;;15.20;99.90;;;;;;5006796;28;20051;-80
2022/09/24 02:59:05;;;;;;;4.72;3.00;;;15.20;99.90;;;;;;5001248;28;20137;-80
2022/09/24 03:01:33;;;;;;;4.13;3.00;;;15.10;99.90;;;;;;4998976;28;20054;-80
2022/09/24 03:04:00;;;;;;;4.30;2.50;;;15.20;99.90;;;;;;5027614;28;20089;-80
2022/09/24 03:06:27;;;;;;;3.50;2.53;;;15.10;99.90;;;;;;5010942;28;20050;-80
2022/09/24 03:08:54;;;;;;;4.32;2.60;;;15.10;99.90;;;;;;4995717;28;20647;-80
2022/09/24 03:11:22;;;;;;;3.67;2.78;;;15.10;99.90;;;;;;4994391;28;20056;-80
2022/09/24 03:13:49;;;;;;;2.65;2.30;;;15.10;99.90;;;;;;5017831;28;20056;-80
2022/09/24 03:16:17;;;;;;;4.75;2.70;;;15.10;99.90;;;;;;5013357;28;20049;-80
2022/09/24 03:18:45;;;;;;;4.82;2.60;;;15.00;99.90;;;;;;5006349;28;20104;-79
2022/09/24 03:21:14;;;;;;;4.88;2.60;;;15.00;99.90;;;;;;4992209;28;20050;-79
2022/09/24 03:23:41;;;;;;;2.95;2.17;;;15.00;99.90;;;;;;4992830;28;20064;-78
2022/09/24 03:26:08;;;;;;;5.80;2.50;;;14.90;99.90;;;;;;5004414;28;20066;-80
2022/09/24 03:28:36;;;;;;;3.35;2.00;;;14.90;99.90;;;;;;5004101;28;20078;-80
2022/09/24 03:31:03;;;;;;;4.15;2.10;;;14.90;99.90;;;;;;4998460;28;20050;-80
2022/09/24 03:33:49;;;;;;;4.93;2.25;;;14.90;99.90;;;;;;4985126;28;20484;-79
2022/09/24 03:36:24;;;;;;;3.55;2.22;;;14.90;99.90;;;;;;5014064;28;20080;-80
2022/09/24 03:38:55;;;;;;;5.15;2.95;;;14.90;99.90;;;;;;5021075;28;20050;-80
2022/09/24 03:41:24;;;;;;;2.80;2.30;;;14.90;99.90;;;;;;5013395;28;20655;-80
2022/09/24 03:43:50;;;;;;;4.32;2.17;;;14.90;99.90;;;;;;5018003;28;20050;-80
2022/09/24 03:46:18;;;;;;;2.42;1.95;;;14.80;99.90;;;;;;5015285;28;20136;-80
2022/09/24 03:48:46;;;;;;;3.17;2.00;;;14.80;99.90;;;;;;4993190;28;20061;-79
2022/09/24 03:51:15;;;;;;;4.80;2.00;;;14.80;99.90;;;;;;5005354;28;20046;-80
2022/09/24 03:53:42;;;;;;;3.83;2.25;;;14.80;99.90;;;;;;5002339;28;20460;-80
2022/09/24 03:56:10;;;;;;;5.82;2.67;;;14.80;99.90;;;;;;5017777;28;20046;-80
2022/09/24 03:58:38;;;;;;;3.90;2.53;;;14.80;99.90;;;;;;4992437;28;20050;-80
2022/09/24 04:01:06;;;;;;;3.00;2.10;;;14.80;99.90;;;;;;4997932;28;20137;-80
2022/09/24 04:03:34;;;;;;;2.97;1.85;;;14.70;99.90;;;;;;4983417;28;20137;-80
2022/09/24 04:06:01;;;;;;;2.45;2.00;;;14.70;99.90;;;;;;4998305;28;20129;-80
2022/09/24 04:08:30;;;;;;;4.28;1.90;;;14.70;99.90;;;;;;5003010;28;20523;-80
2022/09/24 04:10:57;;;;;;;2.25;1.85;;;14.70;99.90;;;;;;5008678;28;20054;-79
2022/09/24 04:13:24;;;;;;;2.58;2.00;;;14.70;99.90;;;;;;4995444;28;20050;-80
2022/09/24 04:15:52;;;;;;;2.55;2.17;;;14.70;99.90;;;;;;5015745;28;20093;-80
2022/09/24 04:18:19;;;;;;;3.45;1.90;;;14.70;99.90;;;;;;5011444;28;20045;-80
2022/09/24 04:20:46;;;;;;;2.20;1.80;;;14.70;99.90;;;;;;4989588;28;20056;-80
2022/09/24 04:23:13;;;;;;;2.97;2.10;;;14.70;99.90;;;;;;5002314;28;20137;-80
2022/09/24 04:25:40;;;;;;;2.45;1.92;;;14.70;99.90;;;;;;5016844;28;20056;-79
2022/09/24 04:28:08;;;;;;;3.78;2.78;;;14.70;99.90;;;;;;5013020;28;20056;-80
2022/09/24 04:30:36;;;;;;;3.35;2.22;;;14.80;99.90;;;;;;5024241;28;20137;-80
2022/09/24 04:33:03;;;;;;;3.22;1.90;;;14.70;99.90;;;;;;5004069;28;20096;-80
2022/09/24 04:35:31;;;;;;;2.85;1.80;;;14.70;99.90;;;;;;4999184;28;20523;-80
2022/09/24 04:37:59;;;;;;;2.45;2.08;;;14.70;99.90;;;;;;5010356;28;20047;-79
2022/09/24 04:40:26;;;;;;;3.00;2.13;;;14.60;99.90;;;;;;5007558;28;20508;-80
2022/09/24 04:42:53;;;;;;;2.47;1.83;;;14.70;99.90;;;;;;5002722;28;20429;-80
2022/09/24 04:45:20;;;;;;;2.85;2.10;;;14.70;99.90;;;;;;4998726;28;20113;-79
2022/09/24 04:47:54;;;;;;;5.97;2.10;;;14.70;99.90;;;;;;5008575;28;20046;-79
2022/09/24 04:50:22;;;;;;;4.18;2.03;;;14.70;99.90;;;;;;5000123;28;20058;-80
2022/09/24 04:52:49;;;;;;;4.25;2.10;;;14.70;99.90;;;;;;5004260;28;20046;-79
2022/09/24 04:55:16;;;;;;;3.30;2.05;;;14.60;99.90;;;;;;4998571;28;20131;-80
2022/09/24 04:57:44;;;;;;;1.85;1.60;;;14.60;99.90;;;;;;5003609;28;20134;-79
2022/09/24 05:00:14;;;;;;;4.90;2.38;;;14.60;99.90;;;;;;5008916;28;20497;-79
2022/09/24 05:02:42;;;;;;;6.10;2.00;;;14.60;99.90;;;;;;5003928;28;20408;-79
2022/09/24 05:05:10;;;;;;;2.35;2.10;;;14.50;99.90;;;;;;4999592;28;20786;-80
2022/09/24 05:07:37;;;;;;;2.88;2.00;;;14.50;99.90;;;;;;4998935;28;20148;-79
2022/09/24 05:10:05;;;;;;;3.55;1.88;;;14.50;99.90;;;;;;4997840;28;20133;-80
2022/09/24 05:12:34;;;;;;;3.35;2.30;;;14.50;99.90;;;;;;5001437;28;20612;-79
2022/09/24 05:15:01;;;;;;;3.63;2.47;;;14.50;99.90;;;;;;4994884;28;20052;-79
2022/09/24 05:17:27;;;;;;;3.38;2.25;;;14.60;99.90;;;;;;5026439;28;20096;-79
2022/09/24 05:19:56;;;;;;;3.83;2.00;;;14.60;99.90;;;;;;4993044;28;20056;-81
2022/09/24 05:22:26;;;;;;;3.42;2.20;;;14.60;99.90;;;;;;5004585;28;20120;-79
2022/09/24 05:24:53;;;;;;;2.90;2.20;;;14.60;99.90;;;;;;4999858;28;20046;-80
2022/09/24 05:27:22;;;;;;;3.00;2.20;;;14.60;99.90;;;;;;4996820;28;20479;-78
2022/09/24 05:29:49;;;;;;;3.47;2.08;;;14.60;99.90;;;;;;4989812;28;20054;-80
2022/09/24 05:32:18;;;;;;;3.10;1.90;;;14.60;99.90;;;;;;4989052;28;20491;-79
2022/09/24 05:34:46;;;;;;;4.75;2.20;;;14.60;99.90;;;;;;5002252;28;20057;-80
2022/09/24 05:37:13;;;;;;;2.22;1.83;;;14.60;99.90;;;;;;5000008;28;20138;-81
2022/09/24 05:39:40;;;;;;;4.63;2.33;;;14.60;99.90;;;;;;5007733;28;20125;-81
2022/09/24 05:42:09;;;;;;;3.00;1.88;;;14.60;99.90;;;;;;5013031;28;20133;-81
2022/09/24 05:44:36;;;;;;;3.17;2.15;;;14.60;99.90;;;;;;5013405;28;20058;-81
2022/09/24 05:47:03;;;;;;;4.97;2.30;;;14.60;99.90;;;;;;4991235;28;20078;-81
2022/09/24 05:49:30;;;;;;;2.30;1.88;;;14.60;99.90;;;;;;5004872;28;20058;-80
2022/09/24 05:51:57;;;;;;;3.53;1.80;;;14.60;99.90;;;;;;5009947;28;20070;-81
2022/09/24 05:54:24;;;;;;;4.13;2.00;;;14.60;99.90;;;;;;5015083;28;20053;-80
2022/09/24 05:56:51;;;;;;;2.13;1.80;;;14.60;99.90;;;;;;5015139;28;20331;-80
2022/09/24 05:59:18;;;;;;;4.00;2.30;;;14.60;99.90;;;;;;5009616;28;20064;-80
2022/09/24 06:01:44;;;;;;;2.33;1.88;;;14.60;99.90;;;;;;5019028;28;20050;-80
2022/09/24 06:04:11;;;;;;;2.22;1.75;;;14.60;99.90;;;;;;5018200;28;20054;-80
2022/09/24 06:06:38;;;;;;;1.95;1.75;;;14.60;99.90;;;;;;4996826;28;20052;-79
2022/09/24 06:09:05;;;;;;;2.15;1.67;;;14.70;99.90;;;;;;5004316;28;20050;-81
2022/09/24 06:11:34;;;;;;;2.50;1.70;;;14.60;99.90;;;;;;5011917;28;20093;-81
2022/09/24 06:14:07;;;;;;;4.20;1.85;;;14.60;99.90;;;;;;5011869;28;20058;-81
2022/09/24 06:16:34;;;;;;;2.13;1.92;;;14.70;99.90;;;;;;5006853;28;20046;-81
2022/09/24 06:19:01;;;;;;;3.08;2.05;;;14.70;99.90;;;;;;4997768;28;20078;-81
2022/09/24 06:21:28;;;;;;;3.47;2.20;;;14.70;99.90;;;;;;5005497;28;20053;-81
2022/09/24 06:23:55;;;;;;;3.17;2.05;;;14.70;99.90;;;;;;5012346;28;20046;-81
2022/09/24 06:26:22;;;;;;;2.60;1.95;;;14.70;99.90;;;;;;5008189;28;20049;-81
2022/09/24 06:28:48;;;;;;;3.30;1.75;;;14.80;99.90;;;;;;5003923;28;20505;-81
2022/09/24 06:31:15;;;;;;;2.70;1.90;;;14.80;99.90;;;;;;5000942;28;20082;-81
2022/09/24 06:33:42;;;;;;;3.17;2.20;;;14.80;99.90;;;;;;5014025;28;20050;-81
2022/09/24 06:36:09;;;;;;;2.42;1.88;;;14.80;99.90;;;;;;5009253;28;20046;-81
2022/09/24 06:38:38;;;;;;;3.63;1.83;;;14.80;99.90;;;;;;5004477;28;20057;-81
2022/09/24 06:41:05;;;;;;;2.42;1.80;;;14.80;99.90;;;;;;5000723;28;20134;-81
2022/09/24 06:43:33;;;;;;;2.42;1.65;;;14.80;99.90;;;;;;5012354;28;20056;-81
2022/09/24 06:46:00;;;;;;;4.55;2.00;;;14.80;99.90;;;;;;5011152;28;20450;-81
2022/09/24 06:48:28;;;;;;;4.25;2.42;;;14.80;99.90;;;;;;5009987;28;20046;-81
2022/09/24 06:50:55;;;;;;;3.90;2.50;;;14.90;99.90;;;;;;5014643;28;20050;-81
2022/09/24 06:53:22;;;;;;;3.47;2.78;;;14.90;99.90;;;;;;5028523;28;20053;-80
2022/09/24 06:55:49;;;;;;;2.35;1.90;;;15.00;99.90;;;;;;5007950;28;20141;-80
2022/09/24 06:58:19;;;;;;;3.92;2.20;;;15.00;99.90;;;;;;5013428;28;20439;-81
2022/09/24 07:01:05;;;;;;;3.20;2.08;;;15.00;99.90;;;;;;5001712;28;20054;-81
2022/09/24 07:03:33;;;;;;;2.65;2.00;;;15.10;99.90;;;;;;5005815;28;20415;-81
2022/09/24 07:06:02;;;;;;;3.72;2.30;;;15.10;99.90;;;;;;5011459;28;20113;-81
2022/09/24 07:08:29;;;;;;;3.15;1.90;;;15.10;99.90;;;;;;5006583;28;20050;-81
2022/09/24 07:10:56;;;;;;;3.13;2.00;;;15.10;99.90;;;;;;5002194;28;20060;-79
2022/09/24 07:13:23;;;;;;;3.97;2.10;;;15.10;99.90;;;;;;4985057;28;20050;-81
2022/09/24 07:15:51;;;;;;;2.25;2.05;;;15.10;99.90;;;;;;5017340;28;20050;-81
2022/09/24 07:18:19;;;;;;;3.17;2.00;;;15.20;99.90;;;;;;5012405;28;20054;-81
2022/09/24 07:20:53;;;;;;;3.10;1.60;;;15.20;99.90;;;;;;5013491;28;20488;-80
2022/09/24 07:23:21;;;;;;;4.18;2.00;;;15.20;99.90;;;;;;5003650;28;20138;-81
2022/09/24 07:25:49;;;;;;;4.38;2.20;;;15.20;99.90;;;;;;5018556;28;20069;-81
2022/09/24 07:28:16;;;;;;;2.50;1.92;;;15.20;99.90;;;;;;5013632;28;20126;-80
2022/09/24 07:30:43;;;;;;;3.17;2.30;;;15.30;99.90;;;;;;5008827;28;20136;-80
2022/09/24 07:33:10;;;;;;;6.55;2.80;;;15.30;99.90;;;;;;5003882;28;20117;-80
2022/09/24 07:35:38;;;;;;;2.20;1.60;;;15.30;99.90;;;;;;5029975;28;20125;-81
2022/09/24 07:38:14;;;;;;;5.45;2.10;;;15.40;99.90;;;;;;5014520;28;20137;-79
2022/09/24 07:40:41;;;;;;;3.92;2.00;;;15.40;99.90;;;;;;5011872;28;20049;-80
2022/09/24 07:43:11;;;;;;;4.85;1.85;;;15.30;99.90;;;;;;5016872;28;20054;-81
2022/09/24 07:45:38;;;;;;;2.30;1.75;;;15.40;99.90;;;;;;5023802;28;20576;-80
2022/09/24 07:48:05;;;;;;;3.17;2.22;;;15.30;99.90;;;;;;5020530;28;20558;-82
2022/09/24 07:50:37;;;;;;;3.35;1.73;;;15.40;99.90;;;;;;5007162;28;20048;-80
2022/09/24 07:53:05;;;;;;;1.90;1.70;;;15.40;99.90;;;;;;5014976;28;20129;-81
2022/09/24 07:55:38;;;;;;;3.58;2.10;;;15.30;99.90;;;;;;5011093;28;20038;-82
2022/09/24 07:58:07;;;;;;;3.20;2.22;;;15.40;99.90;;;;;;5009089;28;20050;-82
2022/09/24 08:00:34;;;;;;;2.88;2.60;;;15.30;99.90;;;;;;4989666;28;20147;-81
2022/09/24 08:03:02;;;;;;;3.35;1.80;;;15.30;99.90;;;;;;5010852;28;20065;-82
2022/09/24 08:05:29;;;;;;;2.78;1.73;;;15.30;99.90;;;;;;5005411;28;20054;-82
2022/09/24 08:07:57;;;;;;;5.28;2.00;;;15.40;99.90;;;;;;5015936;28;20057;-82
2022/09/24 08:10:25;;;;;;;3.00;2.08;;;15.30;99.90;;;;;;5009983;28;20053;-79
2022/09/24 08:12:52;;;;;;;3.20;2.00;;;15.40;99.90;;;;;;5004814;28;20054;-82
2022/09/24 08:15:21;;;;;;;4.35;2.50;;;15.40;99.90;;;;;;5006428;28;20038;-82
2022/09/24 08:17:48;;;;;;;4.47;2.20;;;15.40;99.90;;;;;;5007510;28;20054;-82
2022/09/24 08:20:15;;;;;;;2.10;1.90;;;15.40;99.90;;;;;;5008637;28;20050;-82
2022/09/24 08:22:42;;;;;;;3.17;2.22;;;15.40;99.90;;;;;;5006775;28;20062;-82
2022/09/24 08:25:08;;;;;;;3.65;2.30;;;15.50;99.90;;;;;;5003963;28;20081;-82
2022/09/24 08:27:36;;;;;;;5.30;2.00;;;15.50;99.90;;;;;;5010518;28;20145;-82
2022/09/24 08:30:06;;;;;;;3.95;1.95;;;15.50;99.90;;;;;;5011321;28;20471;-82
2022/09/24 08:32:33;;;;;;;2.60;1.77;;;15.60;99.90;;;;;;5010168;28;20045;-82
2022/09/24 08:35:00;;;;;;;5.95;2.80;;;15.60;99.90;;;;;;5015415;28;20042;-82
2022/09/24 08:37:28;;;;;;;2.88;2.50;;;15.70;99.90;;;;;;5007981;28;20800;-82
2022/09/24 08:39:54;;;;;;;5.03;2.58;;;15.70;99.90;;;;;;4999085;28;20416;-82
2022/09/24 08:42:36;;;;;;;5.18;2.20;;;15.70;99.90;;;;;;5007588;28;20060;-82
2022/09/24 08:47:58;;;;;;;3.03;2.00;;;15.70;99.90;;;;;;5006539;28;20069;-82
2022/09/24 08:50:30;;;;;;;3.97;1.98;;;15.80;99.90;;;;;;5015247;28;20137;-82
2022/09/24 08:53:18;;;;;;;3.42;1.83;;;15.80;99.90;;;;;;5023302;28;20053;-82
2022/09/24 08:55:51;;;;;;;2.92;1.80;;;15.80;99.90;;;;;;5007275;28;20069;-81
2022/09/24 08:58:30;;;;;;;2.38;1.88;;;15.80;99.90;;;;;;5006650;28;20415;-82
2022/09/24 09:01:15;;;;;;;4.68;1.90;;;15.90;99.90;;;;;;5032915;28;20056;-80
2022/09/24 09:03:50;;;;;;;4.28;2.53;;;15.90;99.90;;;;;;5011351;28;20431;-82
2022/09/24 09:06:56;;;;;;;2.50;1.90;;;16.00;99.90;;;;;;5016242;28;20629;-82
2022/09/24 09:09:38;;;;;;;5.47;1.92;;;16.10;99.90;;;;;;5005583;28;20065;-82
2022/09/24 09:12:13;;;;;;;3.47;1.60;;;16.20;99.90;;;;;;5007928;28;20499;-82
2022/09/24 09:15:03;;;;;;;2.33;1.80;;;16.20;99.90;;;;;;5010274;28;20050;-82
2022/09/24 09:17:48;;;;;;;2.97;1.70;;;16.30;99.90;;;;;;5005598;28;20160;-81
2022/09/24 09:20:22;;;;;;;4.57;1.52;;;16.40;99.90;;;;;;4992214;28;20128;-82
2022/09/24 09:22:52;;;;;;;4.50;1.85;;;16.50;99.90;;;;;;5010770;28;20456;-82
2022/09/24 09:25:21;;;;;;;2.75;1.70;;;16.70;99.90;;;;;;5002851;28;20060;-83
2022/09/24 09:28:13;;;;;;;2.50;1.80;;;16.80;99.90;;;;;;5008445;28;20105;-81
2022/09/24 09:31:06;;;;;;;2.75;2.00;;;16.90;99.90;;;;;;5004584;28;20113;-82
2022/09/24 09:33:59;;;;;;;3.72;1.90;;;17.00;99.90;;;;;;5009405;28;20046;-82
2022/09/24 09:37:01;;;;;;;2.20;1.77;;;17.00;99.90;;;;;;5011089;28;20050;-82
2022/09/24 09:40:11;;;;;;;2.70;1.70;;;17.10;99.90;;;;;;4974646;28;20056;-82
2022/09/24 09:42:39;;;;;;;2.95;1.60;;;17.20;99.90;;;;;;5005626;28;20064;-81
2022/09/24 09:45:44;;;;;;;2.90;1.65;;;17.20;99.90;;;;;;4996144;28;20478;-82
2022/09/24 09:48:13;;;;;;;2.28;1.63;;;17.30;99.90;;;;;;5006051;28;20516;-82
2022/09/24 09:50:46;;;;;;;2.08;1.20;;;17.20;99.90;;;;;;5005514;28;20050;-82
2022/09/24 09:53:21;;;;;;;4.28;1.90;;;17.30;99.90;;;;;;5004534;28;20105;-82
2022/09/24 09:55:57;;;;;;;3.58;1.63;;;17.30;99.90;;;;;;5033574;28;20074;-82
2022/09/24 09:58:26;;;;;;;1.95;1.67;;;17.30;99.90;;;;;;5015107;28;20078;-83
2022/09/24 10:01:06;;;;;;;1.52;1.02;;;17.30;99.90;;;;;;5027544;28;20076;-82
2022/09/24 10:03:50;;;;;;;2.42;1.52;;;17.30;99.90;;;;;;5006712;28;20053;-82
2022/09/24 10:06:25;;;;;;;3.72;1.90;;;17.30;99.90;;;;;;5001438;28;20424;-82
2022/09/24 10:08:53;;;;;;;1.95;1.65;;;17.40;99.90;;;;;;5019004;28;20085;-81
2022/09/24 10:11:21;;;;;;;2.80;1.58;;;17.40;99.90;;;;;;5017622;28;20069;-81
2022/09/24 10:14:04;;;;;;;1.67;1.38;;;17.40;99.90;;;;;;5015620;28;20058;-83
2022/09/24 10:16:40;;;;;;;1.77;1.52;;;17.50;99.90;;;;;;5019375;28;20134;-82
2022/09/24 10:19:23;;;;;;;4.30;1.67;;;17.60;99.90;;;;;;5017332;28;20068;-82
2022/09/24 10:21:52;;;;;;;2.20;1.50;;;17.70;99.90;;;;;;4999826;28;20069;-82
2022/09/24 10:24:25;;;;;;;2.10;1.60;;;17.70;99.90;;;;;;5008995;28;20084;-82
2022/09/24 10:26:52;;;;;;;3.95;2.58;;;17.70;99.90;;;;;;5015554;28;20099;-82
2022/09/24 10:32:28;;;;;;;10.80;5.63;;;17.80;99.90;;;;;;5013793;28;20132;-82
2022/09/24 10:35:00;;;;;;;13.65;6.28;;;17.90;99.90;;;;;;5019538;28;20050;-82
2022/09/24 10:37:28;;;;;;;8.65;4.70;;;17.90;99.90;;;;;;5013363;28;20058;-83
2022/09/24 10:40:16;;;;;;;9.50;4.32;;;17.90;99.90;;;;;;5014333;28;20073;-82
2022/09/24 10:42:43;;;;;;;7.15;4.38;;;18.00;99.90;;;;;;5000813;28;20446;-80
2022/09/24 10:45:13;;;;;;;4.85;3.35;;;18.10;99.90;;;;;;4994614;28;20137;-81
2022/09/24 10:47:56;;;;;;;8.02;4.30;;;18.20;99.90;;;;;;5006764;28;20056;-80
2022/09/24 10:50:29;;;;;;;6.72;3.88;;;18.20;99.90;;;;;;5006740;28;20077;-80
2022/09/24 10:52:58;;;;;;;6.30;3.22;;;18.30;99.90;;;;;;4984497;28;20046;-80
2022/09/24 10:55:25;;;;;;;5.87;3.03;;;18.30;99.90;;;;;;5007668;28;20042;-80
2022/09/24 10:58:01;;;;;;;3.42;1.95;;;18.30;99.90;;;;;;5008395;28;20046;-78
2022/09/24 11:00:38;;;;;;;4.00;2.08;;;18.40;99.90;;;;;;5006763;28;20050;-80
2022/09/24 11:03:31;;;;;;;3.80;1.65;;;18.40;99.90;;;;;;5015951;28;20146;-80
2022/09/24 11:06:13;;;;;;;2.47;1.67;;;18.40;99.90;;;;;;5021304;28;20074;-81
2022/09/24 11:09:06;;;;;;;2.67;1.13;;;18.50;99.90;;;;;;5009100;28;20077;-81
2022/09/24 11:11:48;;;;;;;1.55;1.33;;;18.50;99.90;;;;;;5004768;28;20045;-80
2022/09/24 11:14:20;;;;;;;1.45;1.20;;;18.40;99.90;;;;;;5011592;28;20171;-82
2022/09/24 11:17:15;;;;;;;1.38;1.10;;;18.50;99.90;;;;;;5031546;28;20133;-82
2022/09/24 11:20:05;;;;;;;1.25;1.15;;;18.60;99.90;;;;;;5010001;28;20412;-81
2022/09/24 11:22:43;;;;;;;2.58;1.27;;;18.70;99.90;;;;;;5015545;28;20042;-82
2022/09/24 11:25:28;;;;;;;2.85;1.20;;;18.70;99.90;;;;;;5018444;28;20045;-80
2022/09/24 11:28:07;;;;;;;1.88;1.38;;;18.80;99.90;;;;;;5014585;28;20133;-80
2022/09/24 11:31:03;;;;;;;1.85;1.23;;;18.90;99.90;;;;;;5008892;28;20070;-80
2022/09/24 11:33:46;;;;;;;2.25;1.23;;;19.00;99.90;;;;;;5012707;28;20043;-80
2022/09/24 11:36:27;;;;;;;1.40;1.20;;;19.00;99.90;;;;;;5002092;28;20133;-80
2022/09/24 11:39:32;;;;;;;1.13;1.00;;;19.00;99.90;;;;;;5020201;28;20046;-80
2022/09/24 11:42:21;;;;;;;2.40;1.05;;;18.90;99.90;;;;;;5007650;28;20133;-80
2022/09/24 11:44:51;;;;;;;1.75;1.23;;;18.80;99.90;;;;;;5000290;28;20054;-80
2022/09/24 11:47:39;;;;;;;1.58;1.17;;;18.60;99.90;;;;;;5001579;28;20129;-81
2022/09/24 11:50:22;;;;;;;2.03;1.00;;;18.50;99.90;;;;;;5003974;28;20499;-80
2022/09/24 11:53:00;;;;;;;1.70;1.23;;;18.30;99.90;;;;;;5019097;28;20133;-80
2022/09/24 11:55:33;;;;;;;1.50;1.20;;;18.20;99.90;;;;;;5004312;28;20412;-81
2022/09/24 11:58:13;;;;;;;1.80;1.10;;;18.20;99.90;;;;;;5012012;28;20443;-80
2022/09/24 12:01:03;;;;;;;4.97;1.50;;;18.00;99.90;;;;;;5004931;28;20571;-81
2022/09/24 12:03:45;;;;;;;;;;;18.00;99.90;;;;;;4988584;28;20045;-80
2022/09/24 12:06:14;;;;;;;1.25;1.13;;;17.90;99.90;;;;;;5006676;28;20268;-80
2022/09/24 12:08:43;;;;;;;2.15;1.20;;;17.90;99.90;;;;;;5001194;28;20052;-80
2022/09/24 12:11:17;;;;;;;1.65;1.13;;;17.80;99.90;;;;;;5004415;28;20061;-80
2022/09/24 12:14:09;;;;;;;2.40;1.60;;;17.80;99.90;;;;;;5010613;28;20555;-80
2022/09/24 12:16:39;;;;;;;3.45;1.40;;;17.80;99.90;;;;;;5008065;28;20609;-81
2022/09/24 12:19:32;;;;;;;1.55;1.30;;;17.80;99.90;;;;;;5016115;28;20078;-81
2022/09/24 12:22:01;;;;;;;2.15;1.40;;;17.80;99.90;;;;;;5016371;28;20126;-81
2022/09/24 12:24:38;;;;;;;2.90;1.30;;;17.90;99.90;;;;;;5015910;28;20121;-81
2022/09/24 12:27:15;;;;;;;1.63;1.27;;;18.00;99.90;;;;;;4995343;28;20113;-81
2022/09/24 12:33:05;;;;;;;1.45;1.35;;;18.20;99.90;;;;;;5010108;28;20066;-80
2022/09/24 12:36:00;;;;;;;1.67;1.40;;;18.20;99.90;;;;;;4993253;28;20117;-81
2022/09/24 12:38:42;;;;;;;3.58;1.67;;;18.30;99.90;;;;;;5018681;28;20503;-80
2022/09/24 12:41:25;;;;;;;2.47;1.73;;;18.30;99.90;;;;;;5015066;28;20058;-81
2022/09/24 12:44:10;;;;;;;5.53;1.75;;;18.40;99.90;;;;;;4997056;28;20046;-81
2022/09/24 12:46:49;;;;;;;1.92;1.48;;;18.40;99.90;;;;;;5005945;28;20073;-80
2022/09/24 12:49:25;;;;;;;4.85;1.70;;;18.50;99.90;;;;;;4988736;28;20053;-80
2022/09/24 12:51:53;;;;;;;1.83;1.60;;;18.50;99.90;;;;;;5012726;28;20498;-85
2022/09/24 12:54:30;;;;;;;2.45;1.60;;;18.60;99.90;;;;;;5009182;28;20060;-81
2022/09/24 12:57:24;;;;;;;2.03;1.40;;;18.60;99.90;;;;;;5013225;28;20046;-82
2022/09/24 12:59:54;;;;;;;2.85;1.40;;;18.60;99.90;;;;;;5007907;28;20092;-80
2022/09/24 13:02:24;;;;;;;2.43;1.70;;;18.70;99.90;;;;;;5012523;28;20110;-80
2022/09/24 13:05:00;;;;;;;2.88;1.15;;;18.70;99.90;;;;;;5021905;28;20046;-81
2022/09/24 13:07:33;;;;;;;3.08;1.60;;;18.70;99.90;;;;;;5028259;28;20045;-81
2022/09/24 13:10:31;;;;;;;2.80;1.88;;;18.70;99.90;;;;;;5023848;28;20091;-82
2022/09/24 13:12:59;;;;;;;2.50;1.65;;;18.60;99.90;;;;;;5012324;28;20832;-81
2022/09/24 13:15:40;;;;;;;3.20;1.63;;;18.60;99.90;;;;;;5036545;28;20034;-82
2022/09/24 13:18:10;;;;;;;2.65;1.80;;;18.60;99.90;;;;;;5003498;28;20050;-80
2022/09/24 13:20:40;;;;;;;3.17;2.13;;;18.50;99.90;;;;;;5000699;28;20050;-81
2022/09/24 13:23:18;;;;;;;4.03;2.00;;;18.40;99.90;;;;;;5001676;28;20077;-80
2022/09/24 13:26:04;;;;;;;2.80;1.58;;;18.40;99.90;;;;;;5007355;28;20105;-80
2022/09/24 13:28:37;;;;;;;2.35;1.98;;;18.30;99.90;;;;;;5002516;28;20057;-80